sensor_id;sensor_type;location;lat;lon;timestamp;temperature;humidity
6948;DHT22;3513;47.664;9.162;2024-02-26T00:01:39;6.10;98.10
6948;DHT22;3513;47.664;9.162;2024-02-26T00:04:05;6.00;97.90
6948;DHT22;3513;47.664;9.162;2024-02-26T00:06:31;6.10;98.70
6948;DHT22;3513;47.664;9.162;2024-02-26T00:08:57;6.00;98.80
6948;DHT22;3513;47.664;9.162;2024-02-26T00:11:22;5.90;98.10
6948;DHT22;3513;47.664;9.162;2024-02-26T00:13:48;5.90;98.50
6948;DHT22;3513;47.664;9.162;2024-02-26T00:16:13;5.90;99.30
6948;DHT22;3513;47.664;9.162;2024-02-26T00:18:39;6.00;99.30
6948;DHT22;3513;47.664;9.162;2024-02-26T00:21:05;6.00;99.80
6948;DHT22;3513;47.664;9.162;2024-02-26T00:23:30;6.00;99.70
6948;DHT22;3513;47.664;9.162;2024-02-26T00:25:56;6.00;99.80
6948;DHT22;3513;47.664;9.162;2024-02-26T00:28:21;5.90;99.70
6948;DHT22;3513;47.664;9.162;2024-02-26T00:30:47;5.90;99.90
6948;DHT22;3513;47.664;9.162;2024-02-26T00:33:16;5.90;99.90
6948;DHT22;3513;47.664;9.162;2024-02-26T00:35:42;5.90;99.90
6948;DHT22;3513;47.664;9.162;2024-02-26T00:38:08;5.90;99.90
6948;DHT22;3513;47.664;9.162;2024-02-26T00:40:33;6.10;99.90
6948;DHT22;3513;47.664;9.162;2024-02-26T00:42:59;6.10;99.90
6948;DHT22;3513;47.664;9.162;2024-02-26T00:45:25;6.20;99.90
6948;DHT22;3513;47.664;9.162;2024-02-26T00:47:51;6.30;99.90
6948;DHT22;3513;47.664;9.162;2024-02-26T00:50:16;6.30;99.90
6948;DHT22;3513;47.664;9.162;2024-02-26T00:52:42;6.40;99.90
6948;DHT22;3513;47.664;9.162;2024-02-26T00:55:08;6.10;99.80
6948;DHT22;3513;47.664;9.162;2024-02-26T00:57:33;6.10;99.90
6948;DHT22;3513;47.664;9.162;2024-02-26T00:59:59;6.00;99.90
6948;DHT22;3513;47.664;9.162;2024-02-26T01:02:26;5.90;99.90
6948;DHT22;3513;47.664;9.162;2024-02-26T01:04:51;5.90;99.90
6948;DHT22;3513;47.664;9.162;2024-02-26T01:07:17;5.80;99.90
6948;DHT22;3513;47.664;9.162;2024-02-26T01:09:42;6.00;99.90
6948;DHT22;3513;47.664;9.162;2024-02-26T01:12:08;5.80;99.90
6948;DHT22;3513;47.664;9.162;2024-02-26T01:14:34;5.80;99.90
6948;DHT22;3513;47.664;9.162;2024-02-26T01:16:59;5.80;99.90
6948;DHT22;3513;47.664;9.162;2024-02-26T01:19:25;5.70;99.90
6948;DHT22;3513;47.664;9.162;2024-02-26T01:21:50;5.70;99.90
6948;DHT22;3513;47.664;9.162;2024-02-26T01:24:16;5.70;99.90
6948;DHT22;3513;47.664;9.162;2024-02-26T01:26:42;5.80;99.90
6948;DHT22;3513;47.664;9.162;2024-02-26T01:29:08;6.10;99.90
6948;DHT22;3513;47.664;9.162;2024-02-26T01:31:34;6.20;99.90
6948;DHT22;3513;47.664;9.162;2024-02-26T01:33:59;6.10;99.90
6948;DHT22;3513;47.664;9.162;2024-02-26T01:36:25;6.20;99.90
6948;DHT22;3513;47.664;9.162;2024-02-26T01:38:50;6.00;99.90
6948;DHT22;3513;47.664;9.162;2024-02-26T01:41:16;5.90;99.90
6948;DHT22;3513;47.664;9.162;2024-02-26T01:43:42;6.00;99.90
6948;DHT22;3513;47.664;9.162;2024-02-26T01:46:12;5.90;99.90
6948;DHT22;3513;47.664;9.162;2024-02-26T01:48:40;5.90;99.90
6948;DHT22;3513;47.664;9.162;2024-02-26T01:51:06;5.90;99.90
6948;DHT22;3513;47.664;9.162;2024-02-26T01:53:32;5.80;99.90
6948;DHT22;3513;47.664;9.162;2024-02-26T01:55:58;5.80;99.90
6948;DHT22;3513;47.664;9.162;2024-02-26T01:58:24;5.70;99.90
6948;DHT22;3513;47.664;9.162;2024-02-26T02:00:49;5.80;99.90
6948;DHT22;3513;47.664;9.162;2024-02-26T02:03:15;6.00;99.90
6948;DHT22;3513;47.664;9.162;2024-02-26T02:05:42;5.60;99.90
6948;DHT22;3513;47.664;9.162;2024-02-26T02:08:13;6.10;99.90
6948;DHT22;3513;47.664;9.162;2024-02-26T02:10:40;6.00;99.90
6948;DHT22;3513;47.664;9.162;2024-02-26T02:13:07;6.10;99.90
6948;DHT22;3513;47.664;9.162;2024-02-26T02:15:32;6.10;99.90
6948;DHT22;3513;47.664;9.162;2024-02-26T02:17:58;6.00;99.90
6948;DHT22;3513;47.664;9.162;2024-02-26T02:20:32;6.10;99.90
6948;DHT22;3513;47.664;9.162;2024-02-26T02:23:01;6.00;99.90
6948;DHT22;3513;47.664;9.162;2024-02-26T02:25:27;5.90;99.90
6948;DHT22;3513;47.664;9.162;2024-02-26T02:27:56;6.00;99.90
6948;DHT22;3513;47.664;9.162;2024-02-26T02:30:25;5.90;99.80
6948;DHT22;3513;47.664;9.162;2024-02-26T02:32:52;5.90;99.80
6948;DHT22;3513;47.664;9.162;2024-02-26T02:35:18;6.00;99.90
6948;DHT22;3513;47.664;9.162;2024-02-26T02:37:44;6.10;99.90
6948;DHT22;3513;47.664;9.162;2024-02-26T02:40:09;6.30;99.90
6948;DHT22;3513;47.664;9.162;2024-02-26T02:42:35;6.30;99.10
6948;DHT22;3513;47.664;9.162;2024-02-26T02:45:01;6.10;97.00
6948;DHT22;3513;47.664;9.162;2024-02-26T02:47:26;6.00;97.20
6948;DHT22;3513;47.664;9.162;2024-02-26T02:49:52;6.00;97.00
6948;DHT22;3513;47.664;9.162;2024-02-26T02:52:17;6.00;97.50
6948;DHT22;3513;47.664;9.162;2024-02-26T02:54:43;5.90;95.00
6948;DHT22;3513;47.664;9.162;2024-02-26T02:57:09;6.00;95.90
6948;DHT22;3513;47.664;9.162;2024-02-26T02:59:35;6.00;96.50
6948;DHT22;3513;47.664;9.162;2024-02-26T03:02:01;6.00;94.80
6948;DHT22;3513;47.664;9.162;2024-02-26T03:04:26;6.00;94.00
6948;DHT22;3513;47.664;9.162;2024-02-26T03:06:52;5.90;94.10
6948;DHT22;3513;47.664;9.162;2024-02-26T03:09:18;6.00;95.50
6948;DHT22;3513;47.664;9.162;2024-02-26T03:11:43;6.30;96.00
6948;DHT22;3513;47.664;9.162;2024-02-26T03:14:09;6.50;95.40
6948;DHT22;3513;47.664;9.162;2024-02-26T03:16:35;6.50;94.80
6948;DHT22;3513;47.664;9.162;2024-02-26T03:19:01;6.50;96.30
6948;DHT22;3513;47.664;9.162;2024-02-26T03:21:28;6.40;95.30
6948;DHT22;3513;47.664;9.162;2024-02-26T03:23:53;6.40;95.50
6948;DHT22;3513;47.664;9.162;2024-02-26T03:26:19;6.40;96.90
6948;DHT22;3513;47.664;9.162;2024-02-26T03:28:45;6.50;96.30
6948;DHT22;3513;47.664;9.162;2024-02-26T03:31:10;6.30;96.20
6948;DHT22;3513;47.664;9.162;2024-02-26T03:33:36;6.30;97.50
6948;DHT22;3513;47.664;9.162;2024-02-26T03:36:01;6.20;97.70
6948;DHT22;3513;47.664;9.162;2024-02-26T03:38:29;6.20;99.00
6948;DHT22;3513;47.664;9.162;2024-02-26T03:40:54;6.20;98.20
6948;DHT22;3513;47.664;9.162;2024-02-26T03:43:20;6.10;96.90
6948;DHT22;3513;47.664;9.162;2024-02-26T03:45:45;6.00;96.60
6948;DHT22;3513;47.664;9.162;2024-02-26T03:48:11;6.10;98.20
6948;DHT22;3513;47.664;9.162;2024-02-26T03:50:37;6.00;97.50
6948;DHT22;3513;47.664;9.162;2024-02-26T03:53:02;5.90;97.20
6948;DHT22;3513;47.664;9.162;2024-02-26T03:55:28;5.90;97.80
6948;DHT22;3513;47.664;9.162;2024-02-26T03:57:54;5.90;98.30
6948;DHT22;3513;47.664;9.162;2024-02-26T04:00:20;5.90;99.30
6948;DHT22;3513;47.664;9.162;2024-02-26T04:02:47;6.20;97.00
6948;DHT22;3513;47.664;9.162;2024-02-26T04:05:13;6.30;96.50
6948;DHT22;3513;47.664;9.162;2024-02-26T04:07:40;6.10;96.50
6948;DHT22;3513;47.664;9.162;2024-02-26T04:10:15;6.00;97.50
6948;DHT22;3513;47.664;9.162;2024-02-26T04:12:41;6.10;99.10
6948;DHT22;3513;47.664;9.162;2024-02-26T04:15:10;6.30;96.80
6948;DHT22;3513;47.664;9.162;2024-02-26T04:17:37;6.20;96.90
6948;DHT22;3513;47.664;9.162;2024-02-26T04:20:03;6.00;96.90
6948;DHT22;3513;47.664;9.162;2024-02-26T04:22:29;5.90;97.50
6948;DHT22;3513;47.664;9.162;2024-02-26T04:24:54;6.00;99.60
6948;DHT22;3513;47.664;9.162;2024-02-26T04:27:20;6.10;99.20
6948;DHT22;3513;47.664;9.162;2024-02-26T04:29:46;6.10;97.80
6948;DHT22;3513;47.664;9.162;2024-02-26T04:32:11;6.20;98.80
6948;DHT22;3513;47.664;9.162;2024-02-26T04:34:37;5.90;97.40
6948;DHT22;3513;47.664;9.162;2024-02-26T04:37:03;5.90;99.90
6948;DHT22;3513;47.664;9.162;2024-02-26T04:39:28;5.80;98.70
6948;DHT22;3513;47.664;9.162;2024-02-26T04:41:54;5.70;98.00
6948;DHT22;3513;47.664;9.162;2024-02-26T04:44:19;5.70;98.60
6948;DHT22;3513;47.664;9.162;2024-02-26T04:46:45;5.60;98.60
6948;DHT22;3513;47.664;9.162;2024-02-26T04:49:10;5.60;98.30
6948;DHT22;3513;47.664;9.162;2024-02-26T04:51:36;5.60;98.50
6948;DHT22;3513;47.664;9.162;2024-02-26T04:54:02;5.60;98.60
6948;DHT22;3513;47.664;9.162;2024-02-26T04:56:28;5.50;98.40
6948;DHT22;3513;47.664;9.162;2024-02-26T04:58:54;5.50;98.20
6948;DHT22;3513;47.664;9.162;2024-02-26T05:01:19;5.40;98.40
6948;DHT22;3513;47.664;9.162;2024-02-26T05:03:45;5.40;98.20
6948;DHT22;3513;47.664;9.162;2024-02-26T05:06:10;5.40;98.20
6948;DHT22;3513;47.664;9.162;2024-02-26T05:08:36;5.50;99.00
6948;DHT22;3513;47.664;9.162;2024-02-26T05:11:03;5.60;98.50
6948;DHT22;3513;47.664;9.162;2024-02-26T05:13:29;5.60;98.70
6948;DHT22;3513;47.664;9.162;2024-02-26T05:15:55;6.00;99.60
6948;DHT22;3513;47.664;9.162;2024-02-26T05:18:21;6.00;99.90
6948;DHT22;3513;47.664;9.162;2024-02-26T05:20:47;5.90;98.30
6948;DHT22;3513;47.664;9.162;2024-02-26T05:23:13;5.80;98.10
6948;DHT22;3513;47.664;9.162;2024-02-26T05:25:39;5.80;98.60
6948;DHT22;3513;47.664;9.162;2024-02-26T05:28:04;5.60;98.00
6948;DHT22;3513;47.664;9.162;2024-02-26T05:30:30;5.50;98.30
6948;DHT22;3513;47.664;9.162;2024-02-26T05:32:55;5.60;99.30
6948;DHT22;3513;47.664;9.162;2024-02-26T05:35:21;5.80;98.50
6948;DHT22;3513;47.664;9.162;2024-02-26T05:37:47;5.80;98.10
6948;DHT22;3513;47.664;9.162;2024-02-26T05:40:12;5.70;97.90
6948;DHT22;3513;47.664;9.162;2024-02-26T05:42:38;5.90;99.60
6948;DHT22;3513;47.664;9.162;2024-02-26T05:45:04;6.10;97.90
6948;DHT22;3513;47.664;9.162;2024-02-26T05:47:34;6.20;96.50
6948;DHT22;3513;47.664;9.162;2024-02-26T05:49:59;6.20;95.70
6948;DHT22;3513;47.664;9.162;2024-02-26T05:52:26;6.10;95.60
6948;DHT22;3513;47.664;9.162;2024-02-26T05:54:53;6.00;95.90
6948;DHT22;3513;47.664;9.162;2024-02-26T05:57:18;5.80;95.90
6948;DHT22;3513;47.664;9.162;2024-02-26T05:59:44;5.80;96.30
6948;DHT22;3513;47.664;9.162;2024-02-26T06:02:10;5.70;96.70
6948;DHT22;3513;47.664;9.162;2024-02-26T06:04:35;5.80;97.10
6948;DHT22;3513;47.664;9.162;2024-02-26T06:07:01;5.70;96.40
6948;DHT22;3513;47.664;9.162;2024-02-26T06:09:26;5.90;96.80
6948;DHT22;3513;47.664;9.162;2024-02-26T06:11:52;5.90;96.50
6948;DHT22;3513;47.664;9.162;2024-02-26T06:14:17;6.00;95.70
6948;DHT22;3513;47.664;9.162;2024-02-26T06:16:44;6.00;95.70
6948;DHT22;3513;47.664;9.162;2024-02-26T06:19:10;6.10;94.70
6948;DHT22;3513;47.664;9.162;2024-02-26T06:21:36;6.20;93.90
6948;DHT22;3513;47.664;9.162;2024-02-26T06:24:01;6.20;93.70
6948;DHT22;3513;47.664;9.162;2024-02-26T06:26:27;6.10;93.90
6948;DHT22;3513;47.664;9.162;2024-02-26T06:28:54;6.10;93.60
6948;DHT22;3513;47.664;9.162;2024-02-26T06:31:21;6.20;93.90
6948;DHT22;3513;47.664;9.162;2024-02-26T06:33:48;6.20;93.40
6948;DHT22;3513;47.664;9.162;2024-02-26T06:36:15;6.10;94.70
6948;DHT22;3513;47.664;9.162;2024-02-26T06:38:40;6.10;94.10
6948;DHT22;3513;47.664;9.162;2024-02-26T06:41:06;6.00;93.90
6948;DHT22;3513;47.664;9.162;2024-02-26T06:43:32;6.00;94.10
6948;DHT22;3513;47.664;9.162;2024-02-26T06:45:57;5.90;94.40
6948;DHT22;3513;47.664;9.162;2024-02-26T06:48:24;5.90;94.30
6948;DHT22;3513;47.664;9.162;2024-02-26T06:50:50;5.90;93.80
6948;DHT22;3513;47.664;9.162;2024-02-26T06:53:16;5.90;94.40
6948;DHT22;3513;47.664;9.162;2024-02-26T06:55:42;6.00;94.40
6948;DHT22;3513;47.664;9.162;2024-02-26T06:58:08;6.00;94.50
6948;DHT22;3513;47.664;9.162;2024-02-26T07:00:34;6.10;94.50
6948;DHT22;3513;47.664;9.162;2024-02-26T07:03:00;6.10;94.30
6948;DHT22;3513;47.664;9.162;2024-02-26T07:05:26;6.20;94.30
6948;DHT22;3513;47.664;9.162;2024-02-26T07:07:52;6.40;94.10
6948;DHT22;3513;47.664;9.162;2024-02-26T07:10:18;6.40;93.80
6948;DHT22;3513;47.664;9.162;2024-02-26T07:12:43;6.50;93.90
6948;DHT22;3513;47.664;9.162;2024-02-26T07:15:09;6.60;93.90
6948;DHT22;3513;47.664;9.162;2024-02-26T07:17:35;6.80;93.50
6948;DHT22;3513;47.664;9.162;2024-02-26T07:20:01;6.90;93.60
6948;DHT22;3513;47.664;9.162;2024-02-26T07:22:30;6.90;93.40
6948;DHT22;3513;47.664;9.162;2024-02-26T07:24:55;7.00;93.30
6948;DHT22;3513;47.664;9.162;2024-02-26T07:27:21;7.10;93.10
6948;DHT22;3513;47.664;9.162;2024-02-26T07:29:47;7.20;95.10
6948;DHT22;3513;47.664;9.162;2024-02-26T07:32:12;7.20;94.00
6948;DHT22;3513;47.664;9.162;2024-02-26T07:34:38;7.30;94.30
6948;DHT22;3513;47.664;9.162;2024-02-26T07:37:07;7.30;94.70
6948;DHT22;3513;47.664;9.162;2024-02-26T07:39:33;7.40;95.40
6948;DHT22;3513;47.664;9.162;2024-02-26T07:41:58;7.40;93.40
6948;DHT22;3513;47.664;9.162;2024-02-26T07:44:24;7.40;92.10
6948;DHT22;3513;47.664;9.162;2024-02-26T07:46:50;7.40;91.50
6948;DHT22;3513;47.664;9.162;2024-02-26T07:49:15;7.40;91.80
6948;DHT22;3513;47.664;9.162;2024-02-26T07:51:41;7.40;92.00
6948;DHT22;3513;47.664;9.162;2024-02-26T07:54:07;7.50;92.10
6948;DHT22;3513;47.664;9.162;2024-02-26T07:56:33;7.50;92.00
6948;DHT22;3513;47.664;9.162;2024-02-26T07:58:58;7.70;92.50
6948;DHT22;3513;47.664;9.162;2024-02-26T08:01:24;7.70;91.10
6948;DHT22;3513;47.664;9.162;2024-02-26T08:03:51;7.70;91.70
6948;DHT22;3513;47.664;9.162;2024-02-26T08:06:17;7.80;91.80
6948;DHT22;3513;47.664;9.162;2024-02-26T08:08:42;7.80;91.40
6948;DHT22;3513;47.664;9.162;2024-02-26T08:11:09;7.80;91.20
6948;DHT22;3513;47.664;9.162;2024-02-26T08:13:34;7.90;91.20
6948;DHT22;3513;47.664;9.162;2024-02-26T08:16:01;8.00;91.20
6948;DHT22;3513;47.664;9.162;2024-02-26T08:18:26;8.20;91.60
6948;DHT22;3513;47.664;9.162;2024-02-26T08:20:52;8.30;91.40
6948;DHT22;3513;47.664;9.162;2024-02-26T08:23:18;8.40;91.60
6948;DHT22;3513;47.664;9.162;2024-02-26T08:25:44;8.60;90.60
6948;DHT22;3513;47.664;9.162;2024-02-26T08:28:09;8.70;87.70
6948;DHT22;3513;47.664;9.162;2024-02-26T08:30:38;8.80;85.40
6948;DHT22;3513;47.664;9.162;2024-02-26T08:33:04;8.80;82.40
6948;DHT22;3513;47.664;9.162;2024-02-26T08:35:30;8.90;80.90
6948;DHT22;3513;47.664;9.162;2024-02-26T08:37:55;8.90;78.90
6948;DHT22;3513;47.664;9.162;2024-02-26T08:40:21;9.10;77.70
6948;DHT22;3513;47.664;9.162;2024-02-26T08:42:47;9.10;81.40
6948;DHT22;3513;47.664;9.162;2024-02-26T08:45:13;9.20;82.10
6948;DHT22;3513;47.664;9.162;2024-02-26T08:47:39;9.20;82.10
6948;DHT22;3513;47.664;9.162;2024-02-26T08:50:05;9.20;81.60
6948;DHT22;3513;47.664;9.162;2024-02-26T08:52:32;9.30;78.60
6948;DHT22;3513;47.664;9.162;2024-02-26T08:54:58;9.30;78.70
6948;DHT22;3513;47.664;9.162;2024-02-26T08:57:25;9.40;77.40
6948;DHT22;3513;47.664;9.162;2024-02-26T08:59:52;9.50;76.20
6948;DHT22;3513;47.664;9.162;2024-02-26T09:02:17;9.60;76.80
6948;DHT22;3513;47.664;9.162;2024-02-26T09:04:45;9.70;75.70
6948;DHT22;3513;47.664;9.162;2024-02-26T09:07:10;9.80;75.20
6948;DHT22;3513;47.664;9.162;2024-02-26T09:09:36;9.90;73.60
6948;DHT22;3513;47.664;9.162;2024-02-26T09:12:02;9.90;76.00
6948;DHT22;3513;47.664;9.162;2024-02-26T09:14:27;10.00;70.40
6948;DHT22;3513;47.664;9.162;2024-02-26T09:16:53;10.00;74.70
6948;DHT22;3513;47.664;9.162;2024-02-26T09:19:18;10.00;69.50
6948;DHT22;3513;47.664;9.162;2024-02-26T09:21:44;10.00;67.40
6948;DHT22;3513;47.664;9.162;2024-02-26T09:24:13;10.00;67.80
6948;DHT22;3513;47.664;9.162;2024-02-26T09:26:39;10.00;66.00
6948;DHT22;3513;47.664;9.162;2024-02-26T09:29:04;10.00;66.20
6948;DHT22;3513;47.664;9.162;2024-02-26T09:31:31;9.90;67.30
6948;DHT22;3513;47.664;9.162;2024-02-26T09:33:57;9.80;66.70
6948;DHT22;3513;47.664;9.162;2024-02-26T09:36:22;9.90;66.30
6948;DHT22;3513;47.664;9.162;2024-02-26T09:38:48;9.90;68.10
6948;DHT22;3513;47.664;9.162;2024-02-26T09:41:16;10.10;69.60
6948;DHT22;3513;47.664;9.162;2024-02-26T09:43:44;10.10;66.00
6948;DHT22;3513;47.664;9.162;2024-02-26T09:46:11;10.10;65.50
6948;DHT22;3513;47.664;9.162;2024-02-26T09:48:37;10.20;65.90
6948;DHT22;3513;47.664;9.162;2024-02-26T09:51:04;10.20;63.80
6948;DHT22;3513;47.664;9.162;2024-02-26T09:53:32;10.20;63.40
6948;DHT22;3513;47.664;9.162;2024-02-26T09:56:00;10.30;63.40
6948;DHT22;3513;47.664;9.162;2024-02-26T09:58:30;10.20;62.30
6948;DHT22;3513;47.664;9.162;2024-02-26T10:00:56;10.20;62.40
6948;DHT22;3513;47.664;9.162;2024-02-26T10:03:30;10.30;63.00
6948;DHT22;3513;47.664;9.162;2024-02-26T10:05:56;10.40;62.70
6948;DHT22;3513;47.664;9.162;2024-02-26T10:08:23;10.40;62.80
6948;DHT22;3513;47.664;9.162;2024-02-26T10:10:49;10.40;62.30
6948;DHT22;3513;47.664;9.162;2024-02-26T10:13:15;10.60;65.10
6948;DHT22;3513;47.664;9.162;2024-02-26T10:15:41;10.70;63.50
6948;DHT22;3513;47.664;9.162;2024-02-26T10:18:06;10.80;64.60
6948;DHT22;3513;47.664;9.162;2024-02-26T10:20:33;11.00;65.60
6948;DHT22;3513;47.664;9.162;2024-02-26T10:23:02;11.00;63.40
6948;DHT22;3513;47.664;9.162;2024-02-26T10:25:28;11.10;63.90
6948;DHT22;3513;47.664;9.162;2024-02-26T10:27:53;11.10;62.80
6948;DHT22;3513;47.664;9.162;2024-02-26T10:30:20;11.20;62.90
6948;DHT22;3513;47.664;9.162;2024-02-26T10:32:47;11.10;61.50
6948;DHT22;3513;47.664;9.162;2024-02-26T10:35:14;11.20;64.20
6948;DHT22;3513;47.664;9.162;2024-02-26T10:37:41;11.20;62.90
6948;DHT22;3513;47.664;9.162;2024-02-26T10:40:10;11.30;61.60
6948;DHT22;3513;47.664;9.162;2024-02-26T10:42:36;11.30;60.60
6948;DHT22;3513;47.664;9.162;2024-02-26T10:45:04;11.30;61.70
6948;DHT22;3513;47.664;9.162;2024-02-26T10:47:30;11.30;62.20
6948;DHT22;3513;47.664;9.162;2024-02-26T10:49:57;11.20;61.50
6948;DHT22;3513;47.664;9.162;2024-02-26T10:52:25;11.20;61.70
6948;DHT22;3513;47.664;9.162;2024-02-26T10:54:54;11.20;62.40
6948;DHT22;3513;47.664;9.162;2024-02-26T10:57:22;11.20;62.00
6948;DHT22;3513;47.664;9.162;2024-02-26T10:59:50;11.20;61.70
6948;DHT22;3513;47.664;9.162;2024-02-26T11:02:16;11.10;61.60
6948;DHT22;3513;47.664;9.162;2024-02-26T11:04:43;11.10;62.30
6948;DHT22;3513;47.664;9.162;2024-02-26T11:07:09;11.10;62.20
6948;DHT22;3513;47.664;9.162;2024-02-26T11:09:36;11.20;63.50
6948;DHT22;3513;47.664;9.162;2024-02-26T11:12:08;11.20;63.60
6948;DHT22;3513;47.664;9.162;2024-02-26T11:14:39;11.10;61.20
6948;DHT22;3513;47.664;9.162;2024-02-26T11:17:07;11.10;60.50
6948;DHT22;3513;47.664;9.162;2024-02-26T11:19:35;11.10;61.60
6948;DHT22;3513;47.664;9.162;2024-02-26T11:22:01;11.10;63.00
6948;DHT22;3513;47.664;9.162;2024-02-26T11:24:27;11.10;63.60
6948;DHT22;3513;47.664;9.162;2024-02-26T11:26:55;11.00;62.60
6948;DHT22;3513;47.664;9.162;2024-02-26T11:29:26;11.00;63.90
6948;DHT22;3513;47.664;9.162;2024-02-26T11:31:52;11.00;63.50
6948;DHT22;3513;47.664;9.162;2024-02-26T11:34:18;11.10;63.00
6948;DHT22;3513;47.664;9.162;2024-02-26T11:36:45;11.10;62.50
6948;DHT22;3513;47.664;9.162;2024-02-26T11:39:11;11.10;62.20
6948;DHT22;3513;47.664;9.162;2024-02-26T11:41:42;11.10;62.20
6948;DHT22;3513;47.664;9.162;2024-02-26T11:44:08;11.10;62.00
6948;DHT22;3513;47.664;9.162;2024-02-26T11:46:39;11.20;62.60
6948;DHT22;3513;47.664;9.162;2024-02-26T11:51:55;11.30;62.50
6948;DHT22;3513;47.664;9.162;2024-02-26T11:54:53;11.40;62.10
6948;DHT22;3513;47.664;9.162;2024-02-26T11:59:56;11.50;61.80
6948;DHT22;3513;47.664;9.162;2024-02-26T12:05:19;11.80;61.90
6948;DHT22;3513;47.664;9.162;2024-02-26T12:08:04;11.90;63.40
6948;DHT22;3513;47.664;9.162;2024-02-26T12:10:33;11.90;60.90
6948;DHT22;3513;47.664;9.162;2024-02-26T12:13:07;11.90;60.80
6948;DHT22;3513;47.664;9.162;2024-02-26T12:15:37;12.00;60.40
6948;DHT22;3513;47.664;9.162;2024-02-26T12:18:05;12.10;60.00
6948;DHT22;3513;47.664;9.162;2024-02-26T12:20:31;12.10;58.40
6948;DHT22;3513;47.664;9.162;2024-02-26T12:22:57;12.10;57.60
6948;DHT22;3513;47.664;9.162;2024-02-26T12:25:28;12.10;58.70
6948;DHT22;3513;47.664;9.162;2024-02-26T12:27:54;12.10;58.90
6948;DHT22;3513;47.664;9.162;2024-02-26T12:30:21;12.20;59.00
6948;DHT22;3513;47.664;9.162;2024-02-26T12:32:48;12.20;59.30
6948;DHT22;3513;47.664;9.162;2024-02-26T12:35:15;12.30;58.50
6948;DHT22;3513;47.664;9.162;2024-02-26T12:37:41;12.30;59.00
6948;DHT22;3513;47.664;9.162;2024-02-26T12:40:11;12.40;57.70
6948;DHT22;3513;47.664;9.162;2024-02-26T12:42:37;12.40;59.00
6948;DHT22;3513;47.664;9.162;2024-02-26T12:45:10;12.50;58.10
6948;DHT22;3513;47.664;9.162;2024-02-26T12:47:43;12.50;58.40
6948;DHT22;3513;47.664;9.162;2024-02-26T12:50:10;12.40;56.80
6948;DHT22;3513;47.664;9.162;2024-02-26T12:52:46;12.10;57.20
6948;DHT22;3513;47.664;9.162;2024-02-26T12:55:17;12.00;59.00
6948;DHT22;3513;47.664;9.162;2024-02-26T12:57:44;12.10;59.00
6948;DHT22;3513;47.664;9.162;2024-02-26T13:00:13;12.10;57.80
6948;DHT22;3513;47.664;9.162;2024-02-26T13:02:41;12.10;58.50
6948;DHT22;3513;47.664;9.162;2024-02-26T13:05:10;12.30;59.60
6948;DHT22;3513;47.664;9.162;2024-02-26T13:07:43;12.50;58.00
6948;DHT22;3513;47.664;9.162;2024-02-26T13:10:10;12.50;57.40
6948;DHT22;3513;47.664;9.162;2024-02-26T13:12:43;12.40;57.90
6948;DHT22;3513;47.664;9.162;2024-02-26T13:15:14;12.60;59.30
6948;DHT22;3513;47.664;9.162;2024-02-26T13:17:40;12.70;58.00
6948;DHT22;3513;47.664;9.162;2024-02-26T13:20:08;12.70;58.20
6948;DHT22;3513;47.664;9.162;2024-02-26T13:22:35;12.60;56.90
6948;DHT22;3513;47.664;9.162;2024-02-26T13:25:01;12.70;58.20
6948;DHT22;3513;47.664;9.162;2024-02-26T13:27:29;12.70;57.30
6948;DHT22;3513;47.664;9.162;2024-02-26T13:30:12;12.70;58.00
6948;DHT22;3513;47.664;9.162;2024-02-26T13:32:39;12.90;57.30
6948;DHT22;3513;47.664;9.162;2024-02-26T13:35:12;12.90;57.60
6948;DHT22;3513;47.664;9.162;2024-02-26T13:37:38;13.00;56.70
6948;DHT22;3513;47.664;9.162;2024-02-26T13:40:08;12.80;57.10
6948;DHT22;3513;47.664;9.162;2024-02-26T13:42:35;12.90;58.00
6948;DHT22;3513;47.664;9.162;2024-02-26T13:45:00;13.00;59.40
6948;DHT22;3513;47.664;9.162;2024-02-26T13:47:26;13.00;58.90
6948;DHT22;3513;47.664;9.162;2024-02-26T13:49:52;13.20;59.10
6948;DHT22;3513;47.664;9.162;2024-02-26T13:52:17;13.40;58.50
6948;DHT22;3513;47.664;9.162;2024-02-26T13:54:45;13.50;58.80
6948;DHT22;3513;47.664;9.162;2024-02-26T13:57:11;13.50;58.30
6948;DHT22;3513;47.664;9.162;2024-02-26T13:59:36;13.50;57.90
6948;DHT22;3513;47.664;9.162;2024-02-26T14:02:02;13.50;56.70
6948;DHT22;3513;47.664;9.162;2024-02-26T14:04:28;13.50;57.60
6948;DHT22;3513;47.664;9.162;2024-02-26T14:06:53;13.50;58.30
6948;DHT22;3513;47.664;9.162;2024-02-26T14:09:19;13.50;58.30
6948;DHT22;3513;47.664;9.162;2024-02-26T14:11:48;13.50;58.80
6948;DHT22;3513;47.664;9.162;2024-02-26T14:14:14;13.40;58.30
6948;DHT22;3513;47.664;9.162;2024-02-26T14:16:40;13.30;58.30
6948;DHT22;3513;47.664;9.162;2024-02-26T14:19:06;13.30;59.80
6948;DHT22;3513;47.664;9.162;2024-02-26T14:21:31;13.20;59.50
6948;DHT22;3513;47.664;9.162;2024-02-26T14:23:57;13.20;59.80
6948;DHT22;3513;47.664;9.162;2024-02-26T14:26:23;13.20;58.80
6948;DHT22;3513;47.664;9.162;2024-02-26T14:28:48;13.10;59.70
6948;DHT22;3513;47.664;9.162;2024-02-26T14:31:17;13.00;58.80
6948;DHT22;3513;47.664;9.162;2024-02-26T14:33:43;12.80;59.10
6948;DHT22;3513;47.664;9.162;2024-02-26T14:36:08;12.70;59.70
6948;DHT22;3513;47.664;9.162;2024-02-26T14:38:34;12.60;60.90
6948;DHT22;3513;47.664;9.162;2024-02-26T14:41:00;12.50;61.70
6948;DHT22;3513;47.664;9.162;2024-02-26T14:43:25;12.40;61.90
6948;DHT22;3513;47.664;9.162;2024-02-26T14:45:51;12.30;62.30
6948;DHT22;3513;47.664;9.162;2024-02-26T14:48:17;12.20;62.40
6948;DHT22;3513;47.664;9.162;2024-02-26T14:50:42;12.10;62.40
6948;DHT22;3513;47.664;9.162;2024-02-26T14:53:08;12.10;63.60
6948;DHT22;3513;47.664;9.162;2024-02-26T14:55:33;12.00;63.50
6948;DHT22;3513;47.664;9.162;2024-02-26T14:57:59;12.00;64.10
6948;DHT22;3513;47.664;9.162;2024-02-26T15:00:25;11.90;63.50
6948;DHT22;3513;47.664;9.162;2024-02-26T15:02:50;12.00;64.30
6948;DHT22;3513;47.664;9.162;2024-02-26T15:05:18;11.80;63.80
6948;DHT22;3513;47.664;9.162;2024-02-26T15:07:45;11.90;65.00
6948;DHT22;3513;47.664;9.162;2024-02-26T15:10:10;11.80;64.20
6948;DHT22;3513;47.664;9.162;2024-02-26T15:12:36;11.80;64.10
6948;DHT22;3513;47.664;9.162;2024-02-26T15:15:02;11.70;64.20
6948;DHT22;3513;47.664;9.162;2024-02-26T15:17:28;11.80;64.10
6948;DHT22;3513;47.664;9.162;2024-02-26T15:19:54;11.70;64.20
6948;DHT22;3513;47.664;9.162;2024-02-26T15:22:21;11.60;64.80
6948;DHT22;3513;47.664;9.162;2024-02-26T15:24:47;11.60;66.40
6948;DHT22;3513;47.664;9.162;2024-02-26T15:27:13;11.60;65.70
6948;DHT22;3513;47.664;9.162;2024-02-26T15:29:38;11.50;65.50
6948;DHT22;3513;47.664;9.162;2024-02-26T15:32:05;11.50;65.60
6948;DHT22;3513;47.664;9.162;2024-02-26T15:34:30;11.50;66.20
6948;DHT22;3513;47.664;9.162;2024-02-26T15:36:56;11.50;67.00
6948;DHT22;3513;47.664;9.162;2024-02-26T15:39:21;11.60;65.10
6948;DHT22;3513;47.664;9.162;2024-02-26T15:41:47;11.50;64.90
6948;DHT22;3513;47.664;9.162;2024-02-26T15:44:13;11.70;64.40
6948;DHT22;3513;47.664;9.162;2024-02-26T15:46:39;11.50;64.50
6948;DHT22;3513;47.664;9.162;2024-02-26T15:49:05;11.40;65.60
6948;DHT22;3513;47.664;9.162;2024-02-26T15:51:31;11.40;66.50
6948;DHT22;3513;47.664;9.162;2024-02-26T15:53:56;11.30;67.10
6948;DHT22;3513;47.664;9.162;2024-02-26T15:56:24;11.30;66.60
6948;DHT22;3513;47.664;9.162;2024-02-26T15:58:52;11.40;68.30
6948;DHT22;3513;47.664;9.162;2024-02-26T16:01:18;11.30;68.40
6948;DHT22;3513;47.664;9.162;2024-02-26T16:03:45;11.20;68.40
6948;DHT22;3513;47.664;9.162;2024-02-26T16:06:27;11.20;69.50
6948;DHT22;3513;47.664;9.162;2024-02-26T16:08:54;11.10;70.60
6948;DHT22;3513;47.664;9.162;2024-02-26T16:11:20;11.20;70.40
6948;DHT22;3513;47.664;9.162;2024-02-26T16:13:46;11.30;70.30
6948;DHT22;3513;47.664;9.162;2024-02-26T16:16:17;11.30;69.30